Aérodrome :
LOGIN :

S'inscrire | Disclaimer

   EN    FR    IT 

 










Légende :    VFR   VFR Marginal   IFR   IFR Intensif   IFR Très Intensif
Visi : 
Plafond : 
>= 8 km
>= 3000ft
5 à 8 km
1000 à 3000 ft
1500m à 5 km
500 à 1000 ft
800 à 1500m
200 à 500 ft
< 800m
< 200 ft
Symboles :   Orages  Brouillard  Fortes neiges  Fortes précipitations  Vent > 20 kt
SIGMETs :   Divers  Orages  Givrage  Turbulence  Onde Orograph.  Cendres Volcan.







- Altitude de l'aérodrome : 1 ft
- Voir les cartes d'approche


EGCK - Caernarfon

DERNIER METAR :
  • 172250Z AUTO 17007KT 9999 NCD 06/05 Q1019

METARs EXPIRÉS :
  • 172220Z AUTO 16005KT 100V180 9999 NCD 05/04 Q1019
  • 172150Z AUTO 17007KT 9999 NCD 05/04 Q1020
  • 172120Z AUTO 16007KT 120V180 9999 FEW015/// 05/04 Q1019
  • 172050Z AUTO 17007KT 9999 FEW016/// 06/05 Q1020
  • 172020Z AUTO 17008KT 9999 NCD 06/05 Q1019

TAF TAF EGCK
Valide du 17 à 21h jusqu'au 18 à 06h UTC


171954Z 1721/1806 17006KT 9999 FEW014 SCT040
PROB30
TEMPO 1721/1723 8000 SHRA BKN014
PROB30
TEMPO 1802/1806 8000 RA BKN010
Pas de NOTAMs connus pour ce terrain.



MET'MAP, la Météo Aéronautique d'un coup d'oeil ! - Copyright ORBIFLY Décembre 2007 - Disclaimer

ORBIFLY MET'MAP TEAM :

Programmation & Développement : Alexandra Zaïnal
Conception & Développement : Baudouin d'Aumeries
Co-Programmation & Développement : Marc-Olivier Méhu
Soutien technique & logistique : Manuel Goepfert

Contact : metmap@orbifly.com




SOURCES & CREDITS :

   NOAA